sensor_id;sensor_type;location;lat;lon;timestamp;P1;durP1;ratioP1;P2;durP2;ratioP2
76636;SDS011;65532;52.124;5.480;2023-07-16T00:02:01;3.28;;;0.45;;
76636;SDS011;65532;52.124;5.480;2023-07-16T00:04:28;9.48;;;1.67;;
76636;SDS011;65532;52.124;5.480;2023-07-16T00:06:54;3.72;;;0.57;;
76636;SDS011;65532;52.124;5.480;2023-07-16T00:09:21;4.80;;;1.65;;
76636;SDS011;65532;52.124;5.480;2023-07-16T00:11:47;3.10;;;0.50;;
76636;SDS011;65532;52.124;5.480;2023-07-16T00:14:14;4.07;;;0.75;;
76636;SDS011;65532;52.124;5.480;2023-07-16T00:16:40;6.07;;;0.95;;
76636;SDS011;65532;52.124;5.480;2023-07-16T00:19:09;6.25;;;1.70;;
76636;SDS011;65532;52.124;5.480;2023-07-16T00:21:37;10.30;;;1.95;;
76636;SDS011;65532;52.124;5.480;2023-07-16T00:24:04;6.57;;;1.98;;
76636;SDS011;65532;52.124;5.480;2023-07-16T00:26:31;7.15;;;2.47;;
76636;SDS011;65532;52.124;5.480;2023-07-16T00:28:57;6.65;;;2.22;;
76636;SDS011;65532;52.124;5.480;2023-07-16T00:31:24;10.98;;;2.95;;
76636;SDS011;65532;52.124;5.480;2023-07-16T00:33:51;8.25;;;2.15;;
76636;SDS011;65532;52.124;5.480;2023-07-16T00:36:17;7.40;;;3.03;;
76636;SDS011;65532;52.124;5.480;2023-07-16T00:38:44;6.07;;;2.42;;
76636;SDS011;65532;52.124;5.480;2023-07-16T00:41:15;3.67;;;1.58;;
76636;SDS011;65532;52.124;5.480;2023-07-16T00:46:08;2.80;;;0.30;;
76636;SDS011;65532;52.124;5.480;2023-07-16T00:48:35;7.70;;;1.50;;
76636;SDS011;65532;52.124;5.480;2023-07-16T00:51:02;6.03;;;1.15;;
76636;SDS011;65532;52.124;5.480;2023-07-16T00:53:29;4.30;;;0.63;;
76636;SDS011;65532;52.124;5.480;2023-07-16T00:55:56;4.38;;;0.40;;
76636;SDS011;65532;52.124;5.480;2023-07-16T00:58:23;6.95;;;1.67;;
76636;SDS011;65532;52.124;5.480;2023-07-16T01:00:49;6.32;;;1.67;;
76636;SDS011;65532;52.124;5.480;2023-07-16T01:03:16;4.28;;;1.05;;
76636;SDS011;65532;52.124;5.480;2023-07-16T01:05:54;3.30;;;1.02;;
76636;SDS011;65532;52.124;5.480;2023-07-16T01:08:30;3.30;;;1.23;;
76636;SDS011;65532;52.124;5.480;2023-07-16T01:10:59;9.85;;;1.85;;
76636;SDS011;65532;52.124;5.480;2023-07-16T01:13:26;3.78;;;1.02;;
76636;SDS011;65532;52.124;5.480;2023-07-16T01:15:54;5.18;;;2.20;;
76636;SDS011;65532;52.124;5.480;2023-07-16T01:18:20;7.22;;;1.23;;
76636;SDS011;65532;52.124;5.480;2023-07-16T01:20:47;9.40;;;1.92;;
76636;SDS011;65532;52.124;5.480;2023-07-16T01:25:56;5.50;;;0.88;;
76636;SDS011;65532;52.124;5.480;2023-07-16T01:31:22;4.47;;;1.48;;
76636;SDS011;65532;52.124;5.480;2023-07-16T01:33:49;3.65;;;0.88;;
76636;SDS011;65532;52.124;5.480;2023-07-16T01:36:18;5.38;;;1.05;;
76636;SDS011;65532;52.124;5.480;2023-07-16T01:38:45;4.75;;;1.35;;
76636;SDS011;65532;52.124;5.480;2023-07-16T01:41:13;4.35;;;1.20;;
76636;SDS011;65532;52.124;5.480;2023-07-16T01:43:40;6.32;;;1.38;;
76636;SDS011;65532;52.124;5.480;2023-07-16T01:46:06;5.65;;;1.13;;
76636;SDS011;65532;52.124;5.480;2023-07-16T01:48:33;4.72;;;0.90;;
76636;SDS011;65532;52.124;5.480;2023-07-16T01:51:03;7.00;;;0.95;;
76636;SDS011;65532;52.124;5.480;2023-07-16T01:53:30;4.03;;;0.75;;
76636;SDS011;65532;52.124;5.480;2023-07-16T01:55:57;4.40;;;1.50;;
76636;SDS011;65532;52.124;5.480;2023-07-16T01:58:25;6.80;;;1.27;;
76636;SDS011;65532;52.124;5.480;2023-07-16T02:00:51;4.50;;;0.93;;
76636;SDS011;65532;52.124;5.480;2023-07-16T02:03:18;3.60;;;1.25;;
76636;SDS011;65532;52.124;5.480;2023-07-16T02:05:45;5.88;;;0.80;;
76636;SDS011;65532;52.124;5.480;2023-07-16T02:08:12;10.55;;;2.13;;
76636;SDS011;65532;52.124;5.480;2023-07-16T02:10:38;7.43;;;1.80;;
76636;SDS011;65532;52.124;5.480;2023-07-16T02:13:05;4.97;;;0.75;;
76636;SDS011;65532;52.124;5.480;2023-07-16T02:15:31;7.53;;;1.25;;
76636;SDS011;65532;52.124;5.480;2023-07-16T02:17:58;4.97;;;1.45;;
76636;SDS011;65532;52.124;5.480;2023-07-16T02:20:25;7.35;;;1.13;;
76636;SDS011;65532;52.124;5.480;2023-07-16T02:22:51;6.80;;;1.63;;
76636;SDS011;65532;52.124;5.480;2023-07-16T02:25:18;6.03;;;1.58;;
76636;SDS011;65532;52.124;5.480;2023-07-16T02:27:46;6.28;;;1.67;;
76636;SDS011;65532;52.124;5.480;2023-07-16T02:30:16;10.10;;;0.95;;
76636;SDS011;65532;52.124;5.480;2023-07-16T02:32:43;7.32;;;1.83;;
76636;SDS011;65532;52.124;5.480;2023-07-16T02:35:10;6.13;;;1.58;;
76636;SDS011;65532;52.124;5.480;2023-07-16T02:37:37;7.50;;;2.08;;
76636;SDS011;65532;52.124;5.480;2023-07-16T02:40:03;6.53;;;1.38;;
76636;SDS011;65532;52.124;5.480;2023-07-16T02:42:32;7.00;;;1.80;;
76636;SDS011;65532;52.124;5.480;2023-07-16T02:44:59;7.53;;;1.75;;
76636;SDS011;65532;52.124;5.480;2023-07-16T02:47:26;10.48;;;1.50;;
76636;SDS011;65532;52.124;5.480;2023-07-16T02:49:52;8.63;;;1.50;;
76636;SDS011;65532;52.124;5.480;2023-07-16T02:52:19;7.13;;;1.15;;
76636;SDS011;65532;52.124;5.480;2023-07-16T02:54:45;8.00;;;2.38;;
76636;SDS011;65532;52.124;5.480;2023-07-16T02:57:12;6.28;;;1.42;;
76636;SDS011;65532;52.124;5.480;2023-07-16T02:59:39;5.57;;;0.98;;
76636;SDS011;65532;52.124;5.480;2023-07-16T03:02:05;4.15;;;0.93;;
76636;SDS011;65532;52.124;5.480;2023-07-16T03:04:32;4.80;;;0.98;;
76636;SDS011;65532;52.124;5.480;2023-07-16T03:06:58;4.65;;;0.73;;
76636;SDS011;65532;52.124;5.480;2023-07-16T03:09:25;6.75;;;0.60;;
76636;SDS011;65532;52.124;5.480;2023-07-16T03:11:51;4.53;;;1.75;;
76636;SDS011;65532;52.124;5.480;2023-07-16T03:14:18;8.30;;;1.65;;
76636;SDS011;65532;52.124;5.480;2023-07-16T03:16:44;8.38;;;1.63;;
76636;SDS011;65532;52.124;5.480;2023-07-16T03:19:11;5.53;;;1.80;;
76636;SDS011;65532;52.124;5.480;2023-07-16T03:21:38;8.02;;;2.03;;
76636;SDS011;65532;52.124;5.480;2023-07-16T03:24:04;3.80;;;1.00;;
76636;SDS011;65532;52.124;5.480;2023-07-16T03:26:31;3.15;;;0.77;;
76636;SDS011;65532;52.124;5.480;2023-07-16T03:28:59;5.65;;;1.95;;
76636;SDS011;65532;52.124;5.480;2023-07-16T03:31:27;6.82;;;1.13;;
76636;SDS011;65532;52.124;5.480;2023-07-16T03:33:53;7.60;;;1.17;;
76636;SDS011;65532;52.124;5.480;2023-07-16T03:36:22;6.30;;;1.98;;
76636;SDS011;65532;52.124;5.480;2023-07-16T03:38:49;3.85;;;0.95;;
76636;SDS011;65532;52.124;5.480;2023-07-16T03:41:16;7.80;;;2.05;;
76636;SDS011;65532;52.124;5.480;2023-07-16T03:43:43;8.23;;;0.90;;
76636;SDS011;65532;52.124;5.480;2023-07-16T03:46:16;7.68;;;1.77;;
76636;SDS011;65532;52.124;5.480;2023-07-16T03:48:44;7.15;;;1.67;;
76636;SDS011;65532;52.124;5.480;2023-07-16T03:51:11;7.20;;;1.90;;
76636;SDS011;65532;52.124;5.480;2023-07-16T03:53:38;7.25;;;1.40;;
76636;SDS011;65532;52.124;5.480;2023-07-16T03:56:04;3.83;;;2.08;;
76636;SDS011;65532;52.124;5.480;2023-07-16T03:58:31;6.38;;;1.27;;
76636;SDS011;65532;52.124;5.480;2023-07-16T04:01:00;5.00;;;2.25;;
76636;SDS011;65532;52.124;5.480;2023-07-16T04:03:27;3.35;;;1.23;;
76636;SDS011;65532;52.124;5.480;2023-07-16T04:06:01;10.88;;;1.75;;
76636;SDS011;65532;52.124;5.480;2023-07-16T04:08:31;6.28;;;1.70;;
76636;SDS011;65532;52.124;5.480;2023-07-16T04:10:58;5.75;;;0.75;;
76636;SDS011;65532;52.124;5.480;2023-07-16T04:13:25;7.25;;;1.38;;
76636;SDS011;65532;52.124;5.480;2023-07-16T04:15:51;6.60;;;2.53;;
76636;SDS011;65532;52.124;5.480;2023-07-16T04:18:19;7.25;;;1.90;;
76636;SDS011;65532;52.124;5.480;2023-07-16T04:20:47;5.50;;;1.23;;
76636;SDS011;65532;52.124;5.480;2023-07-16T04:23:13;3.30;;;0.95;;
76636;SDS011;65532;52.124;5.480;2023-07-16T04:25:40;7.70;;;1.05;;
76636;SDS011;65532;52.124;5.480;2023-07-16T04:28:07;6.18;;;1.83;;
76636;SDS011;65532;52.124;5.480;2023-07-16T04:30:33;5.88;;;2.60;;
76636;SDS011;65532;52.124;5.480;2023-07-16T04:33:00;7.25;;;1.48;;
76636;SDS011;65532;52.124;5.480;2023-07-16T04:35:27;4.90;;;2.67;;
76636;SDS011;65532;52.124;5.480;2023-07-16T04:37:53;5.90;;;2.38;;
76636;SDS011;65532;52.124;5.480;2023-07-16T04:40:20;7.47;;;1.85;;
76636;SDS011;65532;52.124;5.480;2023-07-16T04:42:46;6.93;;;1.85;;
76636;SDS011;65532;52.124;5.480;2023-07-16T04:45:13;5.53;;;1.52;;
76636;SDS011;65532;52.124;5.480;2023-07-16T04:47:39;9.07;;;2.63;;
76636;SDS011;65532;52.124;5.480;2023-07-16T04:50:06;6.32;;;2.05;;
76636;SDS011;65532;52.124;5.480;2023-07-16T04:52:33;6.78;;;1.73;;
76636;SDS011;65532;52.124;5.480;2023-07-16T04:55:00;5.82;;;1.52;;
76636;SDS011;65532;52.124;5.480;2023-07-16T04:57:26;7.80;;;1.63;;
76636;SDS011;65532;52.124;5.480;2023-07-16T04:59:53;7.57;;;1.90;;
76636;SDS011;65532;52.124;5.480;2023-07-16T05:02:20;5.25;;;1.23;;
76636;SDS011;65532;52.124;5.480;2023-07-16T05:04:47;4.43;;;1.52;;
76636;SDS011;65532;52.124;5.480;2023-07-16T05:07:14;6.30;;;1.80;;
76636;SDS011;65532;52.124;5.480;2023-07-16T05:09:42;8.10;;;2.47;;
76636;SDS011;65532;52.124;5.480;2023-07-16T05:12:09;5.68;;;1.45;;
76636;SDS011;65532;52.124;5.480;2023-07-16T05:14:42;6.78;;;1.17;;
76636;SDS011;65532;52.124;5.480;2023-07-16T05:19:39;6.95;;;1.73;;
76636;SDS011;65532;52.124;5.480;2023-07-16T05:22:08;6.90;;;1.35;;
76636;SDS011;65532;52.124;5.480;2023-07-16T05:24:34;5.43;;;1.30;;
76636;SDS011;65532;52.124;5.480;2023-07-16T05:27:01;5.47;;;2.08;;
76636;SDS011;65532;52.124;5.480;2023-07-16T05:29:28;8.48;;;2.60;;
76636;SDS011;65532;52.124;5.480;2023-07-16T05:31:54;7.78;;;1.88;;
76636;SDS011;65532;52.124;5.480;2023-07-16T05:34:21;6.70;;;1.35;;
76636;SDS011;65532;52.124;5.480;2023-07-16T05:36:47;7.20;;;2.05;;
76636;SDS011;65532;52.124;5.480;2023-07-16T05:39:14;6.13;;;2.38;;
76636;SDS011;65532;52.124;5.480;2023-07-16T05:41:41;4.85;;;1.52;;
76636;SDS011;65532;52.124;5.480;2023-07-16T05:44:08;8.65;;;2.30;;
76636;SDS011;65532;52.124;5.480;2023-07-16T05:46:35;6.95;;;2.17;;
76636;SDS011;65532;52.124;5.480;2023-07-16T05:49:01;5.72;;;2.30;;
76636;SDS011;65532;52.124;5.480;2023-07-16T05:51:28;6.72;;;1.90;;
76636;SDS011;65532;52.124;5.480;2023-07-16T05:53:54;5.57;;;1.75;;
76636;SDS011;65532;52.124;5.480;2023-07-16T05:56:21;6.72;;;1.85;;
76636;SDS011;65532;52.124;5.480;2023-07-16T05:58:48;6.90;;;2.85;;
76636;SDS011;65532;52.124;5.480;2023-07-16T06:01:14;7.63;;;2.33;;
76636;SDS011;65532;52.124;5.480;2023-07-16T06:03:41;4.07;;;1.38;;
76636;SDS011;65532;52.124;5.480;2023-07-16T06:06:10;5.13;;;1.35;;
76636;SDS011;65532;52.124;5.480;2023-07-16T06:08:37;5.60;;;1.70;;
76636;SDS011;65532;52.124;5.480;2023-07-16T06:11:03;7.10;;;2.50;;
76636;SDS011;65532;52.124;5.480;2023-07-16T06:13:30;6.05;;;2.10;;
76636;SDS011;65532;52.124;5.480;2023-07-16T06:15:57;7.72;;;2.17;;
76636;SDS011;65532;52.124;5.480;2023-07-16T06:18:23;6.93;;;1.77;;
76636;SDS011;65532;52.124;5.480;2023-07-16T06:20:50;7.72;;;2.28;;
76636;SDS011;65532;52.124;5.480;2023-07-16T06:23:18;6.50;;;3.03;;
76636;SDS011;65532;52.124;5.480;2023-07-16T06:25:44;9.93;;;3.58;;
76636;SDS011;65532;52.124;5.480;2023-07-16T06:28:13;4.82;;;1.92;;
76636;SDS011;65532;52.124;5.480;2023-07-16T06:30:40;5.30;;;2.08;;
76636;SDS011;65532;52.124;5.480;2023-07-16T06:33:06;6.25;;;2.10;;
76636;SDS011;65532;52.124;5.480;2023-07-16T06:35:33;5.85;;;2.42;;
76636;SDS011;65532;52.124;5.480;2023-07-16T06:38:00;8.50;;;2.00;;
76636;SDS011;65532;52.124;5.480;2023-07-16T06:40:28;4.78;;;1.55;;
76636;SDS011;65532;52.124;5.480;2023-07-16T06:42:55;5.00;;;2.55;;
76636;SDS011;65532;52.124;5.480;2023-07-16T06:45:22;8.90;;;2.47;;
76636;SDS011;65532;52.124;5.480;2023-07-16T06:47:48;7.45;;;2.78;;
76636;SDS011;65532;52.124;5.480;2023-07-16T06:50:15;5.30;;;3.08;;
76636;SDS011;65532;52.124;5.480;2023-07-16T06:52:41;5.85;;;2.67;;
76636;SDS011;65532;52.124;5.480;2023-07-16T06:55:08;10.13;;;2.03;;
76636;SDS011;65532;52.124;5.480;2023-07-16T06:57:35;5.93;;;1.88;;
76636;SDS011;65532;52.124;5.480;2023-07-16T07:00:02;5.93;;;2.08;;
76636;SDS011;65532;52.124;5.480;2023-07-16T07:02:28;8.77;;;2.78;;
76636;SDS011;65532;52.124;5.480;2023-07-16T07:04:55;7.65;;;2.30;;
76636;SDS011;65532;52.124;5.480;2023-07-16T07:07:22;8.43;;;2.53;;
76636;SDS011;65532;52.124;5.480;2023-07-16T07:09:48;6.43;;;2.05;;
76636;SDS011;65532;52.124;5.480;2023-07-16T07:12:15;5.45;;;1.98;;
76636;SDS011;65532;52.124;5.480;2023-07-16T07:14:42;6.70;;;2.83;;
76636;SDS011;65532;52.124;5.480;2023-07-16T07:17:08;6.20;;;1.60;;
76636;SDS011;65532;52.124;5.480;2023-07-16T07:19:35;5.68;;;2.47;;
76636;SDS011;65532;52.124;5.480;2023-07-16T07:22:01;7.55;;;1.75;;
76636;SDS011;65532;52.124;5.480;2023-07-16T07:24:28;7.00;;;1.80;;
76636;SDS011;65532;52.124;5.480;2023-07-16T07:26:54;6.75;;;2.80;;
76636;SDS011;65532;52.124;5.480;2023-07-16T07:29:21;6.68;;;2.97;;
76636;SDS011;65532;52.124;5.480;2023-07-16T07:31:48;7.38;;;3.50;;
76636;SDS011;65532;52.124;5.480;2023-07-16T07:34:14;8.43;;;2.40;;
76636;SDS011;65532;52.124;5.480;2023-07-16T07:36:41;6.88;;;1.90;;
76636;SDS011;65532;52.124;5.480;2023-07-16T07:39:07;9.90;;;2.30;;
76636;SDS011;65532;52.124;5.480;2023-07-16T07:41:34;9.18;;;1.83;;
76636;SDS011;65532;52.124;5.480;2023-07-16T07:44:00;5.18;;;1.92;;
76636;SDS011;65532;52.124;5.480;2023-07-16T07:46:27;7.05;;;1.85;;
76636;SDS011;65532;52.124;5.480;2023-07-16T07:48:53;7.07;;;3.17;;
76636;SDS011;65532;52.124;5.480;2023-07-16T07:51:20;8.05;;;2.55;;
76636;SDS011;65532;52.124;5.480;2023-07-16T07:53:47;5.68;;;1.77;;
76636;SDS011;65532;52.124;5.480;2023-07-16T07:56:15;8.25;;;2.70;;
76636;SDS011;65532;52.124;5.480;2023-07-16T07:58:42;6.38;;;1.92;;
76636;SDS011;65532;52.124;5.480;2023-07-16T08:01:08;5.82;;;1.63;;
76636;SDS011;65532;52.124;5.480;2023-07-16T08:03:35;9.70;;;3.13;;
76636;SDS011;65532;52.124;5.480;2023-07-16T08:06:02;9.73;;;2.47;;
76636;SDS011;65532;52.124;5.480;2023-07-16T08:08:28;5.63;;;1.73;;
76636;SDS011;65532;52.124;5.480;2023-07-16T08:10:55;6.63;;;1.70;;
76636;SDS011;65532;52.124;5.480;2023-07-16T08:13:22;6.78;;;1.77;;
76636;SDS011;65532;52.124;5.480;2023-07-16T08:15:48;7.30;;;1.90;;
76636;SDS011;65532;52.124;5.480;2023-07-16T08:18:15;5.20;;;2.17;;
76636;SDS011;65532;52.124;5.480;2023-07-16T08:20:41;7.22;;;2.90;;
76636;SDS011;65532;52.124;5.480;2023-07-16T08:23:08;7.13;;;1.92;;
76636;SDS011;65532;52.124;5.480;2023-07-16T08:25:35;10.15;;;2.75;;
76636;SDS011;65532;52.124;5.480;2023-07-16T08:28:04;9.30;;;1.63;;
76636;SDS011;65532;52.124;5.480;2023-07-16T08:30:32;8.43;;;2.58;;
76636;SDS011;65532;52.124;5.480;2023-07-16T08:32:59;6.68;;;3.10;;
76636;SDS011;65532;52.124;5.480;2023-07-16T08:35:26;6.88;;;3.15;;
76636;SDS011;65532;52.124;5.480;2023-07-16T08:37:52;8.85;;;2.35;;
76636;SDS011;65532;52.124;5.480;2023-07-16T08:40:19;6.63;;;2.03;;
76636;SDS011;65532;52.124;5.480;2023-07-16T08:42:47;7.97;;;3.22;;
76636;SDS011;65532;52.124;5.480;2023-07-16T08:45:15;7.47;;;2.40;;
76636;SDS011;65532;52.124;5.480;2023-07-16T08:47:48;6.55;;;1.98;;
76636;SDS011;65532;52.124;5.480;2023-07-16T08:50:15;9.35;;;2.03;;
76636;SDS011;65532;52.124;5.480;2023-07-16T08:52:43;8.27;;;2.13;;
76636;SDS011;65532;52.124;5.480;2023-07-16T08:55:10;12.52;;;3.45;;
76636;SDS011;65532;52.124;5.480;2023-07-16T08:57:39;7.80;;;2.65;;
76636;SDS011;65532;52.124;5.480;2023-07-16T09:00:07;6.88;;;2.55;;
76636;SDS011;65532;52.124;5.480;2023-07-16T09:02:34;10.30;;;2.00;;
76636;SDS011;65532;52.124;5.480;2023-07-16T09:05:01;7.32;;;2.55;;
76636;SDS011;65532;52.124;5.480;2023-07-16T09:07:28;6.75;;;3.03;;
76636;SDS011;65532;52.124;5.480;2023-07-16T09:09:55;8.85;;;2.08;;
76636;SDS011;65532;52.124;5.480;2023-07-16T09:12:26;7.40;;;2.55;;
76636;SDS011;65532;52.124;5.480;2023-07-16T09:14:53;6.03;;;2.70;;
76636;SDS011;65532;52.124;5.480;2023-07-16T09:17:23;6.43;;;2.00;;
76636;SDS011;65532;52.124;5.480;2023-07-16T09:19:51;5.10;;;2.72;;
76636;SDS011;65532;52.124;5.480;2023-07-16T09:22:18;6.93;;;1.85;;
76636;SDS011;65532;52.124;5.480;2023-07-16T09:24:46;7.78;;;2.78;;
76636;SDS011;65532;52.124;5.480;2023-07-16T09:27:14;6.95;;;2.80;;
76636;SDS011;65532;52.124;5.480;2023-07-16T09:29:41;8.13;;;3.25;;
76636;SDS011;65532;52.124;5.480;2023-07-16T09:32:07;7.50;;;2.80;;
76636;SDS011;65532;52.124;5.480;2023-07-16T09:34:34;9.13;;;2.60;;
76636;SDS011;65532;52.124;5.480;2023-07-16T09:37:01;7.65;;;2.42;;
76636;SDS011;65532;52.124;5.480;2023-07-16T09:39:42;8.40;;;3.47;;
76636;SDS011;65532;52.124;5.480;2023-07-16T09:42:12;8.63;;;3.25;;
76636;SDS011;65532;52.124;5.480;2023-07-16T09:44:40;7.88;;;2.78;;
76636;SDS011;65532;52.124;5.480;2023-07-16T09:47:08;6.53;;;1.77;;
76636;SDS011;65532;52.124;5.480;2023-07-16T09:49:34;8.68;;;2.63;;
76636;SDS011;65532;52.124;5.480;2023-07-16T09:52:01;8.77;;;2.53;;
76636;SDS011;65532;52.124;5.480;2023-07-16T09:54:30;6.05;;;2.03;;
76636;SDS011;65532;52.124;5.480;2023-07-16T09:56:59;7.47;;;1.98;;
76636;SDS011;65532;52.124;5.480;2023-07-16T09:59:29;5.57;;;1.50;;
76636;SDS011;65532;52.124;5.480;2023-07-16T10:01:57;7.45;;;2.22;;
76636;SDS011;65532;52.124;5.480;2023-07-16T10:04:24;10.27;;;2.97;;
76636;SDS011;65532;52.124;5.480;2023-07-16T10:06:52;6.95;;;1.65;;
76636;SDS011;65532;52.124;5.480;2023-07-16T10:12:24;8.05;;;2.05;;
76636;SDS011;65532;52.124;5.480;2023-07-16T10:14:53;5.85;;;1.77;;
76636;SDS011;65532;52.124;5.480;2023-07-16T10:17:24;11.05;;;3.20;;
76636;SDS011;65532;52.124;5.480;2023-07-16T10:20:10;6.07;;;2.30;;
76636;SDS011;65532;52.124;5.480;2023-07-16T10:22:37;8.63;;;2.55;;
76636;SDS011;65532;52.124;5.480;2023-07-16T10:27:45;5.80;;;2.53;;
76636;SDS011;65532;52.124;5.480;2023-07-16T10:30:13;5.97;;;1.70;;
76636;SDS011;65532;52.124;5.480;2023-07-16T10:32:40;8.88;;;1.88;;
76636;SDS011;65532;52.124;5.480;2023-07-16T10:35:07;5.63;;;2.50;;
76636;SDS011;65532;52.124;5.480;2023-07-16T10:37:35;6.88;;;1.77;;
76636;SDS011;65532;52.124;5.480;2023-07-16T10:40:02;6.60;;;2.20;;
76636;SDS011;65532;52.124;5.480;2023-07-16T10:42:30;6.88;;;2.50;;
76636;SDS011;65532;52.124;5.480;2023-07-16T10:44:58;8.52;;;2.15;;
76636;SDS011;65532;52.124;5.480;2023-07-16T10:49:58;5.70;;;2.00;;
76636;SDS011;65532;52.124;5.480;2023-07-16T10:52:26;6.47;;;2.15;;
76636;SDS011;65532;52.124;5.480;2023-07-16T10:54:52;7.05;;;2.95;;
76636;SDS011;65532;52.124;5.480;2023-07-16T10:57:21;7.38;;;4.30;;
76636;SDS011;65532;52.124;5.480;2023-07-16T10:59:50;8.38;;;1.80;;
76636;SDS011;65532;52.124;5.480;2023-07-16T11:02:17;7.85;;;2.38;;
76636;SDS011;65532;52.124;5.480;2023-07-16T11:04:45;9.70;;;2.92;;
76636;SDS011;65532;52.124;5.480;2023-07-16T11:07:13;9.02;;;3.75;;
76636;SDS011;65532;52.124;5.480;2023-07-16T11:09:40;7.07;;;2.80;;
76636;SDS011;65532;52.124;5.480;2023-07-16T11:12:15;8.98;;;1.92;;
76636;SDS011;65532;52.124;5.480;2023-07-16T11:14:44;8.20;;;2.15;;
76636;SDS011;65532;52.124;5.480;2023-07-16T11:17:12;7.93;;;2.45;;
76636;SDS011;65532;52.124;5.480;2023-07-16T11:19:39;7.45;;;3.45;;
76636;SDS011;65532;52.124;5.480;2023-07-16T11:22:07;7.72;;;2.63;;
76636;SDS011;65532;52.124;5.480;2023-07-16T11:24:44;8.38;;;2.03;;
76636;SDS011;65532;52.124;5.480;2023-07-16T11:27:13;5.47;;;1.92;;
76636;SDS011;65532;52.124;5.480;2023-07-16T11:29:44;4.97;;;1.63;;
76636;SDS011;65532;52.124;5.480;2023-07-16T11:32:11;5.97;;;2.53;;
76636;SDS011;65532;52.124;5.480;2023-07-16T11:34:50;6.07;;;1.27;;
76636;SDS011;65532;52.124;5.480;2023-07-16T11:37:18;5.97;;;2.33;;
76636;SDS011;65532;52.124;5.480;2023-07-16T11:39:47;8.88;;;2.03;;
76636;SDS011;65532;52.124;5.480;2023-07-16T11:42:17;5.10;;;2.28;;
76636;SDS011;65532;52.124;5.480;2023-07-16T11:44:49;5.70;;;2.22;;
76636;SDS011;65532;52.124;5.480;2023-07-16T11:47:16;5.35;;;1.55;;
76636;SDS011;65532;52.124;5.480;2023-07-16T11:49:43;4.78;;;2.00;;
76636;SDS011;65532;52.124;5.480;2023-07-16T11:52:09;6.57;;;2.35;;
76636;SDS011;65532;52.124;5.480;2023-07-16T11:54:36;5.47;;;1.92;;
76636;SDS011;65532;52.124;5.480;2023-07-16T11:57:02;4.68;;;1.48;;
76636;SDS011;65532;52.124;5.480;2023-07-16T11:59:29;3.15;;;0.90;;
76636;SDS011;65532;52.124;5.480;2023-07-16T12:01:56;3.95;;;1.05;;
76636;SDS011;65532;52.124;5.480;2023-07-16T12:04:22;4.18;;;2.05;;
76636;SDS011;65532;52.124;5.480;2023-07-16T12:06:49;4.65;;;1.70;;
76636;SDS011;65532;52.124;5.480;2023-07-16T12:09:16;3.75;;;1.00;;
76636;SDS011;65532;52.124;5.480;2023-07-16T12:11:43;6.97;;;1.23;;
76636;SDS011;65532;52.124;5.480;2023-07-16T12:14:09;2.70;;;0.77;;
76636;SDS011;65532;52.124;5.480;2023-07-16T12:16:36;2.90;;;0.88;;
76636;SDS011;65532;52.124;5.480;2023-07-16T12:19:03;5.80;;;1.00;;
76636;SDS011;65532;52.124;5.480;2023-07-16T12:21:29;6.38;;;1.50;;
76636;SDS011;65532;52.124;5.480;2023-07-16T12:23:56;2.13;;;0.93;;
76636;SDS011;65532;52.124;5.480;2023-07-16T12:26:22;4.68;;;1.02;;
76636;SDS011;65532;52.124;5.480;2023-07-16T12:28:49;3.65;;;1.00;;
76636;SDS011;65532;52.124;5.480;2023-07-16T12:31:15;4.80;;;0.85;;
76636;SDS011;65532;52.124;5.480;2023-07-16T12:33:46;3.88;;;0.57;;
76636;SDS011;65532;52.124;5.480;2023-07-16T12:36:13;3.30;;;1.35;;
76636;SDS011;65532;52.124;5.480;2023-07-16T12:38:41;4.25;;;1.38;;
76636;SDS011;65532;52.124;5.480;2023-07-16T12:41:08;3.60;;;0.88;;
76636;SDS011;65532;52.124;5.480;2023-07-16T12:43:34;3.55;;;1.50;;
76636;SDS011;65532;52.124;5.480;2023-07-16T12:46:03;3.75;;;1.40;;
76636;SDS011;65532;52.124;5.480;2023-07-16T12:48:31;5.38;;;1.65;;
76636;SDS011;65532;52.124;5.480;2023-07-16T12:50:57;5.32;;;1.30;;
76636;SDS011;65532;52.124;5.480;2023-07-16T12:53:24;3.40;;;0.75;;
76636;SDS011;65532;52.124;5.480;2023-07-16T12:55:52;2.00;;;0.55;;
76636;SDS011;65532;52.124;5.480;2023-07-16T12:58:19;4.95;;;1.98;;
76636;SDS011;65532;52.124;5.480;2023-07-16T13:00:46;2.67;;;0.55;;
76636;SDS011;65532;52.124;5.480;2023-07-16T13:03:12;3.58;;;1.27;;
76636;SDS011;65532;52.124;5.480;2023-07-16T13:05:43;3.33;;;0.55;;
76636;SDS011;65532;52.124;5.480;2023-07-16T13:08:10;3.13;;;0.73;;
76636;SDS011;65532;52.124;5.480;2023-07-16T13:10:36;3.17;;;0.70;;
76636;SDS011;65532;52.124;5.480;2023-07-16T13:13:03;2.53;;;0.40;;
76636;SDS011;65532;52.124;5.480;2023-07-16T13:15:30;3.10;;;1.15;;
76636;SDS011;65532;52.124;5.480;2023-07-16T13:17:56;2.67;;;0.60;;
76636;SDS011;65532;52.124;5.480;2023-07-16T13:20:23;4.47;;;0.40;;
76636;SDS011;65532;52.124;5.480;2023-07-16T13:22:50;3.15;;;0.68;;
76636;SDS011;65532;52.124;5.480;2023-07-16T13:25:17;6.22;;;0.88;;
76636;SDS011;65532;52.124;5.480;2023-07-16T13:27:43;5.60;;;1.40;;
76636;SDS011;65532;52.124;5.480;2023-07-16T13:30:10;2.63;;;0.63;;
76636;SDS011;65532;52.124;5.480;2023-07-16T13:32:38;3.85;;;1.10;;
76636;SDS011;65532;52.124;5.480;2023-07-16T13:35:04;4.35;;;1.17;;
76636;SDS011;65532;52.124;5.480;2023-07-16T13:37:31;2.22;;;0.43;;
76636;SDS011;65532;52.124;5.480;2023-07-16T13:39:58;3.95;;;0.60;;
76636;SDS011;65532;52.124;5.480;2023-07-16T13:42:24;2.38;;;0.52;;
76636;SDS011;65532;52.124;5.480;2023-07-16T13:44:51;1.60;;;0.50;;
76636;SDS011;65532;52.124;5.480;2023-07-16T13:47:17;3.60;;;0.68;;
76636;SDS011;65532;52.124;5.480;2023-07-16T13:49:44;5.22;;;0.40;;
76636;SDS011;65532;52.124;5.480;2023-07-16T13:52:10;2.83;;;0.80;;
76636;SDS011;65532;52.124;5.480;2023-07-16T13:54:37;2.65;;;0.60;;
76636;SDS011;65532;52.124;5.480;2023-07-16T13:57:07;2.97;;;0.40;;
76636;SDS011;65532;52.124;5.480;2023-07-16T13:59:35;2.35;;;1.13;;
76636;SDS011;65532;52.124;5.480;2023-07-16T14:02:02;2.15;;;0.47;;
76636;SDS011;65532;52.124;5.480;2023-07-16T14:04:29;3.88;;;0.43;;
76636;SDS011;65532;52.124;5.480;2023-07-16T14:06:56;3.70;;;0.43;;
76636;SDS011;65532;52.124;5.480;2023-07-16T14:09:22;3.78;;;1.42;;
76636;SDS011;65532;52.124;5.480;2023-07-16T14:11:49;3.85;;;0.63;;
76636;SDS011;65532;52.124;5.480;2023-07-16T14:14:16;3.65;;;1.38;;
76636;SDS011;65532;52.124;5.480;2023-07-16T14:16:44;4.65;;;0.43;;
76636;SDS011;65532;52.124;5.480;2023-07-16T14:19:10;3.05;;;0.45;;
76636;SDS011;65532;52.124;5.480;2023-07-16T14:21:40;4.25;;;0.88;;
76636;SDS011;65532;52.124;5.480;2023-07-16T14:24:07;3.67;;;0.38;;
76636;SDS011;65532;52.124;5.480;2023-07-16T14:26:35;3.22;;;0.60;;
76636;SDS011;65532;52.124;5.480;2023-07-16T14:29:01;2.33;;;0.20;;
76636;SDS011;65532;52.124;5.480;2023-07-16T14:31:28;5.13;;;0.57;;
76636;SDS011;65532;52.124;5.480;2023-07-16T14:33:54;3.55;;;0.55;;
76636;SDS011;65532;52.124;5.480;2023-07-16T14:36:21;4.68;;;0.40;;
76636;SDS011;65532;52.124;5.480;2023-07-16T14:38:48;4.30;;;0.30;;
76636;SDS011;65532;52.124;5.480;2023-07-16T14:41:15;3.90;;;0.40;;
76636;SDS011;65532;52.124;5.480;2023-07-16T14:43:41;3.88;;;0.30;;
76636;SDS011;65532;52.124;5.480;2023-07-16T14:46:08;3.08;;;1.55;;
76636;SDS011;65532;52.124;5.480;2023-07-16T14:48:42;2.28;;;0.40;;
76636;SDS011;65532;52.124;5.480;2023-07-16T14:51:11;4.68;;;0.60;;
76636;SDS011;65532;52.124;5.480;2023-07-16T14:53:38;4.55;;;0.40;;
76636;SDS011;65532;52.124;5.480;2023-07-16T14:56:05;3.42;;;0.75;;
76636;SDS011;65532;52.124;5.480;2023-07-16T14:58:32;5.10;;;0.70;;
76636;SDS011;65532;52.124;5.480;2023-07-16T15:01:01;2.38;;;0.60;;
76636;SDS011;65532;52.124;5.480;2023-07-16T15:03:34;3.63;;;0.60;;
76636;SDS011;65532;52.124;5.480;2023-07-16T15:06:06;5.10;;;1.23;;
76636;SDS011;65532;52.124;5.480;2023-07-16T15:08:33;2.47;;;0.50;;